createdAt,value
2022-11-06T00:00:08.686Z,25.6
2022-11-06T00:01:11.169Z,25.7
2022-11-06T00:02:17.516Z,25.9
2022-11-06T00:03:18.486Z,25.6
2022-11-06T00:04:21.833Z,25.7
2022-11-06T00:05:23.759Z,25.8
2022-11-06T00:06:25.958Z,25.7
2022-11-06T00:07:28.173Z,25.8
2022-11-06T00:08:30.377Z,25.8
2022-11-06T00:09:32.574Z,25.9
2022-11-06T00:10:34.765Z,25.9
2022-11-06T00:11:36.945Z,25.7
2022-11-06T00:12:39.413Z,25.9
2022-11-06T00:13:41.609Z,25.8
2022-11-06T00:14:44.109Z,25.8
2022-11-06T00:15:46.301Z,26.1
2022-11-06T00:16:48.768Z,26
2022-11-06T00:17:51.242Z,26.1
2022-11-06T00:18:53.478Z,26
2022-11-06T00:19:56.032Z,26.1
2022-11-06T00:20:58.240Z,26
2022-11-06T00:22:00.714Z,26
2022-11-06T00:23:03.186Z,25.9
2022-11-06T00:24:04.838Z,26
2022-11-06T00:25:07.311Z,26.1
2022-11-06T00:26:09.784Z,26.1
2022-11-06T00:27:11.958Z,26
2022-11-06T00:28:14.523Z,26.1
2022-11-06T00:29:17.162Z,26.2
2022-11-06T00:30:19.679Z,26
2022-11-06T00:31:22.162Z,26
2022-11-06T00:32:24.273Z,26
2022-11-06T00:33:26.470Z,26.1
2022-11-06T00:34:28.387Z,26
2022-11-06T00:35:31.209Z,26
2022-11-06T00:36:33.676Z,26.1
2022-11-06T00:37:36.172Z,26.2
2022-11-06T00:38:38.102Z,26
2022-11-06T00:39:40.584Z,26.3
2022-11-06T00:40:42.787Z,26
2022-11-06T00:41:44.689Z,26.1
2022-11-06T00:42:46.905Z,26.2
2022-11-06T00:43:49.089Z,26.2
2022-11-06T00:44:51.564Z,26.3
2022-11-06T00:45:53.766Z,26.2
2022-11-06T00:46:56.240Z,26.2
2022-11-06T00:47:58.160Z,26.2
2022-11-06T00:49:00.660Z,26.2
2022-11-06T00:50:02.838Z,26.2
2022-11-06T00:51:05.584Z,26.4
2022-11-06T00:52:07.776Z,26.3
2022-11-06T00:53:10.249Z,26.3
2022-11-06T00:54:12.855Z,26.4
2022-11-06T00:55:15.049Z,26.3
2022-11-06T00:56:17.532Z,26.3
2022-11-06T00:57:19.722Z,26.4
2022-11-06T00:58:21.921Z,26.4
2022-11-06T00:59:24.102Z,26.4
2022-11-06T01:00:26.015Z,26.5
2022-11-06T01:01:28.679Z,26.5
2022-11-06T01:02:32.170Z,26.5
2022-11-06T01:03:35.490Z,26.4
2022-11-06T01:04:37.687Z,26.3
2022-11-06T01:05:39.639Z,26.4
2022-11-06T01:06:42.121Z,26.5
2022-11-06T01:07:44.583Z,26.3
2022-11-06T01:08:47.063Z,26.4
2022-11-06T01:09:49.234Z,26.4
2022-11-06T01:10:51.442Z,26.5
2022-11-06T01:12:12.135Z,26.4
2022-11-06T01:12:58.638Z,26.4
2022-11-06T01:14:00.834Z,26.4
2022-11-06T01:15:03.041Z,26.4
2022-11-06T01:16:04.989Z,26.6
2022-11-06T01:17:07.215Z,26.6
2022-11-06T01:18:09.857Z,26.7
2022-11-06T01:19:13.646Z,26.5
2022-11-06T01:20:16.119Z,26.5
2022-11-06T01:21:18.598Z,26.6
2022-11-06T01:22:21.131Z,26.4
2022-11-06T01:23:23.340Z,26.5
2022-11-06T01:24:25.329Z,26.5
2022-11-06T01:25:27.719Z,26.7
2022-11-06T01:26:38.049Z,26.5
2022-11-06T01:27:34.062Z,26.7
2022-11-06T01:28:36.530Z,26.7
2022-11-06T01:29:38.730Z,26.7
2022-11-06T01:30:40.922Z,26.8
2022-11-06T01:31:43.386Z,26.6
2022-11-06T01:32:45.903Z,26.5
2022-11-06T01:33:48.365Z,26.5
2022-11-06T01:34:50.300Z,26.7
2022-11-06T01:35:52.771Z,26.6
2022-11-06T01:36:55.293Z,26.7
2022-11-06T01:37:57.855Z,26.7
2022-11-06T01:39:00.321Z,26.6
2022-11-06T01:40:02.230Z,26.6
2022-11-06T01:41:04.692Z,26.6
2022-11-06T01:42:06.902Z,26.7
2022-11-06T01:43:08.797Z,26.6
2022-11-06T01:44:11.000Z,26.6
2022-11-06T01:45:13.468Z,26.6
2022-11-06T01:46:15.973Z,26.6
2022-11-06T01:47:18.438Z,26.7
2022-11-06T01:48:20.657Z,26.6
2022-11-06T01:49:23.117Z,26.6
2022-11-06T01:50:25.591Z,26.7
2022-11-06T01:51:28.073Z,26.8
2022-11-06T01:52:30.575Z,26.5
2022-11-06T01:53:33.204Z,26.7
2022-11-06T01:54:35.678Z,26.6
2022-11-06T01:55:37.599Z,26.7
2022-11-06T01:56:40.075Z,26.7
2022-11-06T01:57:42.015Z,26.6
2022-11-06T01:58:44.499Z,26.8
2022-11-06T01:59:46.969Z,26.8
2022-11-06T02:00:49.169Z,26.6
2022-11-06T02:01:51.824Z,26.6
2022-11-06T02:02:54.894Z,26.8
2022-11-06T02:03:58.616Z,26.8
2022-11-06T02:05:00.521Z,26.8
2022-11-06T02:06:02.710Z,26.7
2022-11-06T02:07:04.919Z,26.7
2022-11-06T02:08:06.865Z,26.7
2022-11-06T02:09:09.529Z,26.6
2022-11-06T02:10:11.741Z,26.7
2022-11-06T02:11:14.218Z,26.6
2022-11-06T02:12:16.131Z,26.8
2022-11-06T02:13:18.609Z,26.6
2022-11-06T02:14:21.079Z,26.7
2022-11-06T02:15:22.998Z,26.6
2022-11-06T02:16:25.468Z,26.7
2022-11-06T02:17:27.673Z,26.7
2022-11-06T02:18:30.151Z,26.6
2022-11-06T02:19:32.374Z,26.6
2022-11-06T02:20:34.850Z,26.6
2022-11-06T02:21:37.051Z,26.6
2022-11-06T02:22:39.523Z,26.7
2022-11-06T02:23:41.989Z,26.9
2022-11-06T02:24:44.725Z,26.8
2022-11-06T02:25:47.192Z,26.6
2022-11-06T02:26:49.670Z,26.8
2022-11-06T02:27:52.136Z,26.5
2022-11-06T02:28:54.628Z,26.6
2022-11-06T02:29:56.282Z,26.7
2022-11-06T02:30:58.747Z,26.7
2022-11-06T02:32:00.660Z,26.7
2022-11-06T02:33:03.140Z,26.6
2022-11-06T02:34:05.333Z,26.8
2022-11-06T02:35:07.835Z,26.7
2022-11-06T02:36:10.026Z,26.8
2022-11-06T02:37:12.226Z,26.6
2022-11-06T02:38:15.013Z,26.6
2022-11-06T02:39:17.731Z,26.9
2022-11-06T02:40:20.366Z,26.6
2022-11-06T02:41:22.841Z,26.7
2022-11-06T02:42:25.323Z,26.8
2022-11-06T02:43:27.797Z,26.8
2022-11-06T02:44:29.986Z,26.9
2022-11-06T02:45:32.465Z,26.8
2022-11-06T02:46:34.929Z,26.7
2022-11-06T02:47:37.418Z,26.8
2022-11-06T02:48:39.607Z,26.8
2022-11-06T02:49:42.074Z,26.9
2022-11-06T02:50:43.443Z,26.6
2022-11-06T02:51:45.335Z,26.9
2022-11-06T02:52:47.811Z,26.8
2022-11-06T02:53:50.283Z,26.8
2022-11-06T02:54:52.466Z,26.8
2022-11-06T02:55:55.101Z,26.6
2022-11-06T02:56:57.275Z,26.6
2022-11-06T02:57:59.490Z,26.8
2022-11-06T02:59:01.983Z,26.7
2022-11-06T03:00:04.186Z,26.7
2022-11-06T03:01:06.392Z,26.7
2022-11-06T03:02:08.674Z,26.8
2022-11-06T03:03:12.036Z,26.9
2022-11-06T03:04:14.504Z,26.6
2022-11-06T03:05:16.125Z,27
2022-11-06T03:06:18.625Z,26.8
2022-11-06T03:07:20.834Z,27
2022-11-06T03:08:23.106Z,26.8
2022-11-06T03:09:25.317Z,26.9
2022-11-06T03:10:27.783Z,26.7
2022-11-06T03:11:30.327Z,26.8
2022-11-06T03:12:32.510Z,26.8
2022-11-06T03:13:34.404Z,26.8
2022-11-06T03:14:36.878Z,26.8
2022-11-06T03:15:39.072Z,26.9
2022-11-06T03:16:40.695Z,26.7
2022-11-06T03:17:43.165Z,26.7
2022-11-06T03:18:45.636Z,26.8
2022-11-06T03:19:48.119Z,26.8
2022-11-06T03:20:50.054Z,26.9
2022-11-06T03:21:52.286Z,26.9
2022-11-06T03:22:54.764Z,26.6
2022-11-06T03:23:56.965Z,26.9
2022-11-06T03:24:59.423Z,26.6
2022-11-06T03:26:00.814Z,26.7
2022-11-06T03:27:03.369Z,26.7
2022-11-06T03:28:05.841Z,26.8
2022-11-06T03:29:08.302Z,26.7
2022-11-06T03:30:13.955Z,26.7
2022-11-06T03:31:15.567Z,26.7
2022-11-06T03:32:17.780Z,26.9
2022-11-06T03:33:19.983Z,26.8
2022-11-06T03:34:22.457Z,26.8
2022-11-06T03:35:24.650Z,26.7
2022-11-06T03:36:26.859Z,26.7
2022-11-06T03:37:29.161Z,26.8
2022-11-06T03:38:31.644Z,27
2022-11-06T03:39:38.314Z,26.7
2022-11-06T03:40:40.778Z,26.9
2022-11-06T03:41:42.993Z,26.7
2022-11-06T03:42:45.361Z,26.7
2022-11-06T03:43:47.560Z,26.7
2022-11-06T03:44:50.046Z,26.8
2022-11-06T03:45:52.245Z,26.9
2022-11-06T03:46:54.483Z,26.8
2022-11-06T03:47:56.684Z,26.8
2022-11-06T03:48:58.608Z,26.6
2022-11-06T03:50:00.808Z,26.8
2022-11-06T03:51:03.364Z,26.7
2022-11-06T03:52:05.560Z,26.8
2022-11-06T03:53:07.508Z,26.6
2022-11-06T03:54:09.693Z,26.9
2022-11-06T03:55:11.315Z,26.7
2022-11-06T03:56:13.237Z,26.9
2022-11-06T03:57:15.449Z,26.8
2022-11-06T03:58:18.277Z,27
2022-11-06T03:59:20.959Z,26.9
2022-11-06T04:00:23.171Z,26.9
2022-11-06T04:01:25.454Z,26.9
2022-11-06T04:02:28.494Z,26.8
2022-11-06T04:03:31.737Z,26.9
2022-11-06T04:04:33.945Z,26.8
2022-11-06T04:05:35.844Z,26.8
2022-11-06T04:06:38.317Z,26.9
2022-11-06T04:07:40.795Z,26.6
2022-11-06T04:08:42.719Z,26.7
2022-11-06T04:09:44.918Z,26.8
2022-11-06T04:10:46.847Z,26.7
2022-11-06T04:11:48.468Z,26.9
2022-11-06T04:12:50.684Z,26.6
2022-11-06T04:13:53.376Z,26.8
2022-11-06T04:14:55.865Z,26.6
2022-11-06T04:15:58.056Z,26.7
2022-11-06T04:17:00.525Z,26.5
2022-11-06T04:18:02.720Z,26.5
2022-11-06T04:19:04.920Z,26.6
2022-11-06T04:20:07.821Z,26.5
2022-11-06T04:21:09.753Z,26.5
2022-11-06T04:22:11.397Z,26.4
2022-11-06T04:23:13.875Z,26.4
2022-11-06T04:24:15.829Z,26.5
2022-11-06T04:25:18.016Z,26.5
2022-11-06T04:26:20.201Z,26.5
2022-11-06T04:27:22.681Z,26.6
2022-11-06T04:28:24.618Z,26.4
2022-11-06T04:29:27.158Z,26.5
2022-11-06T04:30:28.781Z,26.2
2022-11-06T04:31:30.975Z,26.3
2022-11-06T04:32:32.900Z,26.4
2022-11-06T04:33:35.104Z,26.3
2022-11-06T04:34:37.301Z,26.3
2022-11-06T04:35:39.218Z,26.4
2022-11-06T04:36:41.398Z,26.4
2022-11-06T04:37:43.597Z,26.4
2022-11-06T04:38:45.549Z,26.4
2022-11-06T04:39:48.037Z,26.2
2022-11-06T04:40:50.221Z,26.2
2022-11-06T04:41:52.700Z,26.3
2022-11-06T04:42:54.597Z,26.4
2022-11-06T04:43:56.782Z,26.3
2022-11-06T04:44:59.390Z,26.1
2022-11-06T04:46:01.859Z,26.3
2022-11-06T04:47:04.060Z,26.3
2022-11-06T04:48:06.527Z,26.2
2022-11-06T04:49:09.009Z,26.3
2022-11-06T04:50:11.484Z,26.2
2022-11-06T04:51:13.972Z,26.3
2022-11-06T04:52:16.165Z,26.2
2022-11-06T04:53:18.344Z,26.3
2022-11-06T04:54:20.803Z,26.2
2022-11-06T04:55:23.037Z,26.2
2022-11-06T04:56:25.831Z,26.2
2022-11-06T04:57:31.358Z,26.4
2022-11-06T04:58:33.844Z,26.3
2022-11-06T04:59:36.039Z,26.3
2022-11-06T05:00:38.549Z,26.3
2022-11-06T05:01:41.151Z,26.2
2022-11-06T05:02:44.194Z,26
2022-11-06T05:03:46.089Z,26.1
2022-11-06T05:04:48.558Z,26.2
2022-11-06T05:05:50.764Z,26.2
2022-11-06T05:06:52.966Z,26
2022-11-06T05:07:55.434Z,26.1
2022-11-06T05:08:57.640Z,26.3
2022-11-06T05:10:00.171Z,26.2
2022-11-06T05:11:02.401Z,26
2022-11-06T05:12:04.863Z,26
2022-11-06T05:13:07.331Z,26.1
2022-11-06T05:14:09.523Z,26.2
2022-11-06T05:15:11.444Z,26
2022-11-06T05:16:14.096Z,26.1
2022-11-06T05:17:16.288Z,26
2022-11-06T05:18:18.735Z,26.2
2022-11-06T05:19:20.929Z,26.1
2022-11-06T05:20:23.126Z,25.9
2022-11-06T05:21:25.329Z,26.2
2022-11-06T05:22:27.395Z,26.1
2022-11-06T05:23:29.586Z,26.2
2022-11-06T05:24:32.067Z,26.2
2022-11-06T05:25:34.269Z,26.2
2022-11-06T05:26:36.755Z,26.2
2022-11-06T05:27:38.943Z,26.1
2022-11-06T05:28:41.154Z,26
2022-11-06T05:29:42.806Z,26
2022-11-06T05:30:44.999Z,26.1
2022-11-06T05:31:47.548Z,26
2022-11-06T05:32:50.027Z,25.9
2022-11-06T05:33:52.491Z,26
2022-11-06T05:34:54.694Z,26
2022-11-06T05:35:56.597Z,26
2022-11-06T05:36:58.786Z,26.1
2022-11-06T05:38:00.688Z,26.1
2022-11-06T05:39:02.890Z,26
2022-11-06T05:40:04.791Z,26
2022-11-06T05:41:06.713Z,26
2022-11-06T05:42:09.027Z,26
2022-11-06T05:43:11.644Z,26.1
2022-11-06T05:44:14.105Z,25.9
2022-11-06T05:45:16.574Z,26.1
2022-11-06T05:46:42.607Z,26.1
2022-11-06T05:47:24.039Z,25.9
2022-11-06T05:48:26.674Z,26
2022-11-06T05:49:29.181Z,26.1
2022-11-06T05:50:31.369Z,26
2022-11-06T05:51:33.847Z,26
2022-11-06T05:52:36.038Z,25.9
2022-11-06T05:53:38.511Z,25.9
2022-11-06T05:54:40.433Z,26
2022-11-06T05:55:42.897Z,26
2022-11-06T05:56:45.366Z,26
2022-11-06T05:57:47.863Z,25.8
2022-11-06T05:58:50.330Z,26.1
2022-11-06T05:59:52.527Z,25.9
2022-11-06T06:00:54.152Z,25.7
2022-11-06T06:01:56.449Z,25.9
2022-11-06T06:02:59.019Z,26
2022-11-06T06:04:01.858Z,25.9
2022-11-06T06:05:04.339Z,26.1
2022-11-06T06:06:06.535Z,25.9
2022-11-06T06:07:09.003Z,25.8
2022-11-06T06:08:11.502Z,26
2022-11-06T06:09:15.988Z,26.3
2022-11-06T06:10:18.463Z,25.9
2022-11-06T06:11:20.653Z,26
2022-11-06T06:12:23.132Z,26
2022-11-06T06:13:25.719Z,26.2
2022-11-06T06:14:27.923Z,25.9
2022-11-06T06:15:29.849Z,25.8
2022-11-06T06:16:31.770Z,25.9
2022-11-06T06:17:34.264Z,25.9
2022-11-06T06:18:36.750Z,25.9
2022-11-06T06:19:39.469Z,26
2022-11-06T06:20:41.672Z,26
2022-11-06T06:21:43.591Z,26
2022-11-06T06:22:45.789Z,25.7
2022-11-06T06:23:48.004Z,25.9
2022-11-06T06:24:50.525Z,25.9
2022-11-06T06:25:52.816Z,25.9
2022-11-06T06:26:54.991Z,26
2022-11-06T06:27:57.475Z,25.9
2022-11-06T06:28:59.698Z,25.9
2022-11-06T06:30:01.916Z,26
2022-11-06T06:31:04.410Z,26.1
2022-11-06T06:32:06.885Z,25.9
2022-11-06T06:33:09.359Z,25.9
2022-11-06T06:34:11.569Z,26.1
2022-11-06T06:35:14.278Z,25.8
2022-11-06T06:36:16.470Z,26.1
2022-11-06T06:37:20.104Z,26.1
2022-11-06T06:38:21.919Z,26
2022-11-06T06:39:23.547Z,26
2022-11-06T06:40:25.189Z,26
2022-11-06T06:41:27.111Z,26.1
2022-11-06T06:42:31.318Z,26.1
2022-11-06T06:43:34.002Z,25.9
2022-11-06T06:44:35.966Z,25.7
2022-11-06T06:45:38.138Z,25.9
2022-11-06T06:46:40.105Z,25.9
2022-11-06T06:47:42.301Z,26.1
2022-11-06T06:48:44.770Z,25.9
2022-11-06T06:49:46.947Z,26
2022-11-06T06:50:49.523Z,25.9
2022-11-06T06:51:51.180Z,26.1
2022-11-06T06:52:53.101Z,25.9
2022-11-06T06:53:55.575Z,26
2022-11-06T06:54:58.052Z,25.9
2022-11-06T06:56:00.618Z,26.1
2022-11-06T06:57:03.091Z,25.9
2022-11-06T06:58:05.001Z,26
2022-11-06T06:59:07.194Z,26
2022-11-06T07:00:09.734Z,25.9
2022-11-06T07:01:12.293Z,25.9
2022-11-06T07:02:15.424Z,26
2022-11-06T07:03:17.782Z,26
2022-11-06T07:04:19.994Z,26
2022-11-06T07:05:22.164Z,25.7
2022-11-06T07:06:24.446Z,25.8
2022-11-06T07:07:26.913Z,25.9
2022-11-06T07:08:28.546Z,26.1
2022-11-06T07:09:30.468Z,26
2022-11-06T07:10:32.951Z,25.9
2022-11-06T07:11:34.873Z,25.9
2022-11-06T07:12:36.781Z,25.9
2022-11-06T07:13:38.713Z,25.8
2022-11-06T07:14:41.191Z,25.8
2022-11-06T07:15:43.421Z,25.8
2022-11-06T07:16:48.487Z,25.9
2022-11-06T07:17:50.331Z,26
2022-11-06T07:18:52.531Z,25.7
2022-11-06T07:19:54.450Z,25.8
2022-11-06T07:20:56.387Z,25.9
2022-11-06T07:21:58.959Z,25.8
2022-11-06T07:23:00.586Z,25.8
2022-11-06T07:24:02.795Z,26
2022-11-06T07:25:05.273Z,25.8
2022-11-06T07:26:07.470Z,25.8
2022-11-06T07:27:09.660Z,25.7
2022-11-06T07:28:11.292Z,25.8
2022-11-06T07:29:13.484Z,25.8
2022-11-06T07:30:15.713Z,25.7
2022-11-06T07:31:17.415Z,25.9
2022-11-06T07:32:19.628Z,25.8
2022-11-06T07:33:22.103Z,25.7
2022-11-06T07:34:24.287Z,25.9
2022-11-06T07:35:26.479Z,25.7
2022-11-06T07:36:28.681Z,25.7
2022-11-06T07:37:31.373Z,25.9
2022-11-06T07:38:33.609Z,26
2022-11-06T07:39:35.799Z,25.7
2022-11-06T07:40:37.987Z,25.7
2022-11-06T07:41:40.195Z,25.8
2022-11-06T07:42:43.738Z,25.9
2022-11-06T07:43:46.035Z,25.8
2022-11-06T07:44:48.240Z,26
2022-11-06T07:45:50.431Z,25.7
2022-11-06T07:46:52.989Z,25.7
2022-11-06T07:47:59.034Z,25.9
2022-11-06T07:49:00.449Z,25.8
2022-11-06T07:50:02.363Z,25.8
2022-11-06T07:51:04.845Z,25.7
2022-11-06T07:52:07.316Z,25.8
2022-11-06T07:53:09.912Z,25.7
2022-11-06T07:54:14.259Z,25.9
2022-11-06T07:55:16.443Z,25.9
2022-11-06T07:56:18.341Z,25.9
2022-11-06T07:57:20.814Z,25.9
2022-11-06T07:58:22.450Z,25.6
2022-11-06T07:59:24.654Z,25.9
2022-11-06T08:00:27.337Z,25.8
2022-11-06T08:01:29.868Z,25.7
2022-11-06T08:02:33.221Z,25.7
2022-11-06T08:03:36.243Z,25.9
2022-11-06T08:04:38.723Z,25.8
2022-11-06T08:05:40.915Z,25.8
2022-11-06T08:06:42.809Z,25.8
2022-11-06T08:07:45.012Z,25.8
2022-11-06T08:08:47.668Z,25.9
2022-11-06T08:09:49.563Z,25.7
2022-11-06T08:10:51.779Z,25.8
2022-11-06T08:11:53.414Z,25.7
2022-11-06T08:12:55.623Z,25.7
2022-11-06T08:13:58.140Z,25.9
2022-11-06T08:15:00.349Z,25.9
2022-11-06T08:16:02.551Z,25.8
2022-11-06T08:17:05.040Z,25.8
2022-11-06T08:18:07.000Z,25.7
2022-11-06T08:19:09.205Z,25.9
2022-11-06T08:20:11.407Z,25.9
2022-11-06T08:21:13.885Z,25.6
2022-11-06T08:22:16.108Z,26
2022-11-06T08:23:18.344Z,25.7
2022-11-06T08:24:22.220Z,25.8
2022-11-06T08:25:24.855Z,25.8
2022-11-06T08:26:27.341Z,25.9
2022-11-06T08:27:29.511Z,25.8
2022-11-06T08:28:31.754Z,25.8
2022-11-06T08:29:38.346Z,25.7
2022-11-06T08:30:38.960Z,25.7
2022-11-06T08:31:41.423Z,25.9
2022-11-06T08:32:43.349Z,25.9
2022-11-06T08:33:45.862Z,26
2022-11-06T08:34:48.061Z,25.8
2022-11-06T08:35:50.255Z,25.8
2022-11-06T08:36:52.459Z,25.8
2022-11-06T08:37:54.636Z,25.6
2022-11-06T08:38:56.594Z,25.8
2022-11-06T08:39:58.980Z,25.7
2022-11-06T08:41:01.490Z,25.9
2022-11-06T08:42:03.693Z,25.7
2022-11-06T08:43:06.189Z,25.6
2022-11-06T08:44:08.378Z,25.7
2022-11-06T08:45:10.296Z,25.8
2022-11-06T08:46:12.192Z,25.8
2022-11-06T08:47:14.427Z,25.9
2022-11-06T08:48:16.663Z,25.7
2022-11-06T08:49:19.432Z,25.9
2022-11-06T08:50:21.620Z,25.8
2022-11-06T08:51:24.097Z,25.7
2022-11-06T08:52:28.760Z,25.9
2022-11-06T08:53:31.049Z,25.8
2022-11-06T08:54:33.959Z,25.7
2022-11-06T08:55:36.498Z,25.7
2022-11-06T08:56:38.696Z,25.8
2022-11-06T08:57:41.170Z,25.7
2022-11-06T08:58:43.649Z,25.6
2022-11-06T08:59:45.869Z,25.8
2022-11-06T09:00:48.138Z,25.7
2022-11-06T09:01:51.115Z,25.6
2022-11-06T09:02:54.450Z,25.6
2022-11-06T09:03:56.111Z,25.8
2022-11-06T09:04:58.646Z,25.8
2022-11-06T09:06:00.886Z,25.6
2022-11-06T09:07:03.082Z,25.7
2022-11-06T09:08:05.599Z,25.8
2022-11-06T09:09:08.078Z,25.7
2022-11-06T09:10:10.555Z,25.9
2022-11-06T09:11:13.128Z,25.6
2022-11-06T09:12:15.322Z,25.7
2022-11-06T09:13:17.407Z,25.7
2022-11-06T09:14:19.712Z,25.7
2022-11-06T09:15:21.925Z,25.8
2022-11-06T09:16:24.121Z,25.7
2022-11-06T09:17:26.301Z,25.8
2022-11-06T09:18:28.515Z,25.6
2022-11-06T09:19:30.983Z,25.8
2022-11-06T09:20:33.198Z,25.8
2022-11-06T09:21:34.853Z,26
2022-11-06T09:22:37.067Z,25.6
2022-11-06T09:23:38.986Z,25.7
2022-11-06T09:25:01.692Z,25.7
2022-11-06T09:25:45.908Z,25.8
2022-11-06T09:26:48.451Z,25.7
2022-11-06T09:27:54.436Z,25.9
2022-11-06T09:28:55.910Z,25.9
2022-11-06T09:29:58.389Z,25.6
2022-11-06T09:31:00.587Z,25.8
2022-11-06T09:32:02.219Z,25.6
2022-11-06T09:33:07.038Z,25.7
2022-11-06T09:34:09.410Z,25.7
2022-11-06T09:35:11.873Z,25.8
2022-11-06T09:36:13.832Z,25.7
2022-11-06T09:37:16.012Z,25.6
2022-11-06T09:38:18.198Z,25.8
2022-11-06T09:39:20.706Z,25.7
2022-11-06T09:40:22.630Z,25.6
2022-11-06T09:41:24.838Z,25.7
2022-11-06T09:42:27.109Z,25.7
2022-11-06T09:43:50.615Z,25.7
2022-11-06T09:44:34.570Z,25.9
2022-11-06T09:45:37.043Z,25.7
2022-11-06T09:46:39.246Z,25.6
2022-11-06T09:47:41.736Z,25.7
2022-11-06T09:48:44.203Z,25.7
2022-11-06T09:49:46.675Z,25.9
2022-11-06T09:50:48.587Z,25.7
2022-11-06T09:51:50.266Z,25.6
2022-11-06T09:52:54.060Z,25.6
2022-11-06T09:54:01.240Z,25.7
2022-11-06T09:55:04.413Z,25.7
2022-11-06T09:56:07.923Z,25.7
2022-11-06T09:57:10.417Z,25.5
2022-11-06T09:58:13.232Z,25.6
2022-11-06T09:59:17.490Z,25.7
2022-11-06T10:00:19.710Z,25.6
2022-11-06T10:01:26.129Z,25.5
2022-11-06T10:02:27.098Z,25.6
2022-11-06T10:03:29.365Z,25.7
2022-11-06T10:04:31.840Z,25.6
2022-11-06T10:05:34.313Z,25.7
2022-11-06T10:06:36.508Z,25.7
2022-11-06T10:07:39.016Z,25.7
2022-11-06T10:08:41.498Z,25.7
2022-11-06T10:09:43.418Z,25.8
2022-11-06T10:10:45.891Z,25.7
2022-11-06T10:11:48.098Z,25.6
2022-11-06T10:12:50.600Z,25.6
2022-11-06T10:13:53.156Z,25.6
2022-11-06T10:14:55.657Z,25.5
2022-11-06T10:15:57.857Z,25.6
2022-11-06T10:17:00.057Z,25.6
2022-11-06T10:18:02.530Z,25.6
2022-11-06T10:19:04.451Z,25.6
2022-11-06T10:20:06.660Z,25.6
2022-11-06T10:21:08.570Z,25.5
2022-11-06T10:22:10.793Z,25.6
2022-11-06T10:23:13.115Z,25.8
2022-11-06T10:24:15.598Z,25.6
2022-11-06T10:25:18.077Z,25.7
2022-11-06T10:26:19.711Z,25.7
2022-11-06T10:27:22.187Z,25.7
2022-11-06T10:28:23.810Z,25.7
2022-11-06T10:29:26.398Z,25.6
2022-11-06T10:30:28.878Z,25.6
2022-11-06T10:31:31.357Z,25.7
2022-11-06T10:32:33.876Z,25.6
2022-11-06T10:33:36.085Z,25.6
2022-11-06T10:34:37.988Z,25.8
2022-11-06T10:35:40.198Z,25.6
2022-11-06T10:36:45.029Z,25.7
2022-11-06T10:37:47.407Z,25.8
2022-11-06T10:38:49.761Z,25.6
2022-11-06T10:39:51.950Z,25.6
2022-11-06T10:40:53.875Z,25.6
2022-11-06T10:41:56.074Z,25.5
2022-11-06T10:42:58.305Z,25.6
2022-11-06T10:44:00.217Z,25.6
2022-11-06T10:45:02.873Z,25.6
2022-11-06T10:46:05.354Z,25.7
2022-11-06T10:47:07.860Z,25.5
2022-11-06T10:48:10.531Z,25.6
2022-11-06T10:49:14.829Z,25.7
2022-11-06T10:50:17.298Z,25.6
2022-11-06T10:51:19.517Z,25.7
2022-11-06T10:52:21.999Z,25.4
2022-11-06T10:53:23.938Z,25.6
2022-11-06T10:54:26.454Z,25.5
2022-11-06T10:55:28.917Z,25.7
2022-11-06T10:56:31.395Z,25.5
2022-11-06T10:57:33.863Z,25.6
2022-11-06T10:58:35.801Z,25.6
2022-11-06T10:59:38.281Z,25.7
2022-11-06T11:00:40.904Z,25.6
2022-11-06T11:01:43.266Z,25.6
2022-11-06T11:02:45.668Z,25.7
2022-11-06T11:03:48.139Z,25.5
2022-11-06T11:04:54.052Z,25.7
2022-11-06T11:05:55.601Z,25.6
2022-11-06T11:06:58.095Z,25.7
2022-11-06T11:08:00.667Z,25.6
2022-11-06T11:09:03.131Z,25.6
2022-11-06T11:10:05.635Z,25.6
2022-11-06T11:11:08.099Z,25.8
2022-11-06T11:12:10.565Z,25.5
2022-11-06T11:13:13.033Z,25.6
2022-11-06T11:14:15.518Z,25.7
2022-11-06T11:15:17.437Z,25.5
2022-11-06T11:16:20.095Z,25.5
2022-11-06T11:17:22.373Z,25.7
2022-11-06T11:18:24.292Z,25.6
2022-11-06T11:19:26.495Z,25.6
2022-11-06T11:20:28.599Z,25.6
2022-11-06T11:21:30.547Z,25.5
2022-11-06T11:22:33.376Z,25.7
2022-11-06T11:23:35.686Z,25.6
2022-11-06T11:24:38.159Z,25.5
2022-11-06T11:25:40.650Z,25.6
2022-11-06T11:26:43.128Z,25.9
2022-11-06T11:27:45.341Z,25.5
2022-11-06T11:28:47.816Z,25.5
2022-11-06T11:29:50.288Z,25.6
2022-11-06T11:30:52.483Z,25.6
2022-11-06T11:31:55.250Z,25.6
2022-11-06T11:32:57.450Z,25.7
2022-11-06T11:33:59.920Z,25.7
2022-11-06T11:35:02.389Z,25.6
2022-11-06T11:36:04.868Z,25.6
2022-11-06T11:37:07.257Z,25.6
2022-11-06T11:38:09.497Z,25.5
2022-11-06T11:39:13.160Z,25.6
2022-11-06T11:40:15.629Z,25.7
2022-11-06T11:41:18.239Z,25.7
2022-11-06T11:42:20.717Z,25.8
2022-11-06T11:43:23.204Z,25.4
2022-11-06T11:44:25.401Z,25.6
2022-11-06T11:45:27.899Z,25.6
2022-11-06T11:46:30.096Z,25.4
2022-11-06T11:47:32.742Z,25.7
2022-11-06T11:48:35.007Z,25.7
2022-11-06T11:49:37.486Z,25.7
2022-11-06T11:50:39.678Z,25.6
2022-11-06T11:51:41.586Z,25.6
2022-11-06T11:52:44.076Z,25.6
2022-11-06T11:53:46.370Z,25.8
2022-11-06T11:54:48.555Z,25.5
2022-11-06T11:55:51.032Z,25.6
2022-11-06T11:57:08.217Z,25.6
2022-11-06T11:57:57.927Z,25.7
2022-11-06T11:59:00.416Z,25.7
2022-11-06T12:00:02.904Z,25.6
2022-11-06T12:01:05.747Z,25.6
2022-11-06T12:02:08.426Z,25.8
2022-11-06T12:03:12.428Z,25.6
2022-11-06T12:04:15.417Z,25.4
2022-11-06T12:05:17.909Z,25.6
2022-11-06T12:06:20.433Z,25.6
2022-11-06T12:07:22.714Z,25.5
2022-11-06T12:08:24.911Z,25.9
2022-11-06T12:09:27.111Z,25.6
2022-11-06T12:10:29.588Z,25.5
2022-11-06T12:11:31.508Z,25.4
2022-11-06T12:12:33.754Z,25.5
2022-11-06T12:13:35.948Z,25.6
2022-11-06T12:14:37.593Z,25.4
2022-11-06T12:15:39.489Z,25.6
2022-11-06T12:16:41.670Z,25.6
2022-11-06T12:17:43.869Z,25.6
2022-11-06T12:18:46.264Z,25.7
2022-11-06T12:19:48.480Z,25.6
2022-11-06T12:20:50.697Z,25.6
2022-11-06T12:21:52.905Z,25.7
2022-11-06T12:22:55.099Z,25.5
2022-11-06T12:23:56.720Z,25.4
2022-11-06T12:24:58.910Z,25.6
2022-11-06T12:26:01.385Z,25.5
2022-11-06T12:27:03.588Z,25.5
2022-11-06T12:28:05.531Z,25.6
2022-11-06T12:29:07.461Z,25.6
2022-11-06T12:30:09.107Z,25.6
2022-11-06T12:31:11.302Z,25.5
2022-11-06T12:32:13.787Z,25.6
2022-11-06T12:33:16.265Z,25.4
2022-11-06T12:34:18.930Z,25.6
2022-11-06T12:35:21.148Z,25.7
2022-11-06T12:36:23.639Z,25.5
2022-11-06T12:37:25.855Z,25.6
2022-11-06T12:38:28.332Z,25.7
2022-11-06T12:39:30.542Z,25.7
2022-11-06T12:40:32.743Z,25.5
2022-11-06T12:41:35.209Z,25.7
2022-11-06T12:42:37.405Z,25.5
2022-11-06T12:43:39.636Z,25.7
2022-11-06T12:44:42.098Z,25.7
2022-11-06T12:45:43.744Z,25.7
2022-11-06T12:46:46.218Z,25.7
2022-11-06T12:47:48.700Z,25.4
2022-11-06T12:48:50.912Z,25.6
2022-11-06T12:49:53.661Z,25.8
2022-11-06T12:50:55.885Z,25.6
2022-11-06T12:51:58.087Z,25.6
2022-11-06T12:53:05.112Z,25.5
2022-11-06T12:54:05.560Z,25.5
2022-11-06T12:55:07.460Z,25.8
2022-11-06T12:56:09.934Z,25.7
2022-11-06T12:57:12.112Z,25.7
2022-11-06T12:58:14.607Z,25.4
2022-11-06T12:59:18.453Z,25.5
2022-11-06T13:00:20.688Z,25.7
2022-11-06T13:01:29.004Z,25.8
2022-11-06T13:02:32.225Z,25.7
2022-11-06T13:03:35.351Z,25.5
2022-11-06T13:04:37.842Z,25.6
2022-11-06T13:05:40.119Z,25.5
2022-11-06T13:06:42.315Z,25.6
2022-11-06T13:07:44.513Z,25.5
2022-11-06T13:08:47.011Z,25.7
2022-11-06T13:09:49.206Z,25.6
2022-11-06T13:10:51.697Z,25.7
2022-11-06T13:11:53.907Z,25.7
2022-11-06T13:12:55.834Z,25.5
2022-11-06T13:13:57.764Z,25.7
2022-11-06T13:14:59.993Z,25.6
2022-11-06T13:16:02.478Z,25.5
2022-11-06T13:17:04.975Z,25.6
2022-11-06T13:18:07.455Z,25.5
2022-11-06T13:19:09.628Z,25.5
2022-11-06T13:20:12.171Z,25.6
2022-11-06T13:21:14.898Z,25.5
2022-11-06T13:22:17.115Z,25.6
2022-11-06T13:23:19.060Z,25.5
2022-11-06T13:24:21.250Z,25.5
2022-11-06T13:25:23.721Z,25.4
2022-11-06T13:26:25.934Z,25.4
2022-11-06T13:27:28.134Z,25.6
2022-11-06T13:28:30.040Z,25.6
2022-11-06T13:29:32.247Z,25.5
2022-11-06T13:30:34.171Z,25.5
2022-11-06T13:31:36.648Z,25.5
2022-11-06T13:32:38.609Z,25.7
2022-11-06T13:33:41.114Z,25.7
2022-11-06T13:34:43.327Z,25.7
2022-11-06T13:35:45.802Z,25.7
2022-11-06T13:36:48.450Z,25.6
2022-11-06T13:37:50.646Z,25.8
2022-11-06T13:38:52.618Z,25.5
2022-11-06T13:39:54.828Z,25.5
2022-11-06T13:41:00.749Z,25.8
2022-11-06T13:42:01.724Z,25.7
2022-11-06T13:43:04.207Z,25.7
2022-11-06T13:44:06.679Z,25.6
2022-11-06T13:45:09.196Z,25.4
2022-11-06T13:46:11.422Z,25.6
2022-11-06T13:47:13.616Z,25.7
2022-11-06T13:48:16.202Z,25.7
2022-11-06T13:49:18.968Z,26
2022-11-06T13:50:21.440Z,25.6
2022-11-06T13:51:23.914Z,25.5
2022-11-06T13:52:26.560Z,25.5
2022-11-06T13:53:29.054Z,25.7
2022-11-06T13:54:31.268Z,25.4